LSMMLSZS

Guest
Details From LSMM - Meiringen
To LSZS - Samedan
Flight Number -
Tags decoded
Created
Modified
Stats Distance 106 nm / 197 km
Max Altitude 0 ft / 0 m
Waypoints 6
Social Downloads 1
Likes 0
Share VATSIM

Download

Looking for another format? Having issues loading an existing format? Contact us
Advertisement - Login to hide

Notes

Requested: LSMM GERSA Z50 SOPER ABREG LSZS

Route

LSMM GERSA Z50 SOPER ABREG LSZS

ID Type Via Altitude Latitude Longitude Leg Dist Tot Dist Heading (true) Name
O LSMM APT - 0 ft / 0 m 46.74233˚ 8.10875˚ - 0 nm - Meiringen
GERSA FIX - 0 ft / 0 m 47.03944˚ 8.53222˚ 24 nm 24 nm 44° / 44° -
KELIP FIX Z50 (AWY-LO) 0 ft / 0 m 46.95611˚ 8.76167˚ 10 nm 35 nm 118° / 118° -
SOPER FIX Z50 (AWY-LO) 0 ft / 0 m 46.88944˚ 8.94444˚ 8 nm 44 nm 118° / 118° -
ABREG FIX - 0 ft / 0 m 46.30694˚ 9.55139˚ 43 nm 87 nm 144° / 145° -
O LSZS APT - 0 ft / 0 m 46.53421˚ 9.88394˚ 19 nm 106 nm 45° / 45° Samedan

Altitude Profile

Advertisement - Login to hide

LSMM

Details ICAO LSMM
Name Meiringen
Region Switzerland
Timezone Europe/Zurich (UTC+1.0)
Stats Elevation 1,879 ft / 573 m (AMSL)
Location 46.742327° 8.108747°
Runways 1
Magnetic Variation 2.235° E

METAR

LSMM 150950Z 10003KT 020V120 9999 SCT110 01/M00 Q1001 RMK BLU+

Decode

TAF

TAF LSMM 150925Z 1510/1616 24007KT 9999 SCT015 BKN030 PROB40 TEMPO 1512/1518 24010G25KT 2500 SHSN BKN013 BECMG 1603/1606 2000 SN BKN010 PROB40 TEMPO 1606/1616 1400 VV008

Decode

Departure Runways

ID Width Length Bearing (true) Bearing (mag) Surface Threshold Offset Overrun Length
10 131 ft / 40 m 6,884 ft / 2,098 m 96.60° 94.37° Concrete 150 ft / 46 m 623 ft / 190 m
28 131 ft / 40 m 6,884 ft / 2,098 m 276.62° 274.39° Concrete 150 ft / 46 m 623 ft / 190 m

LSZS

Details ICAO LSZS (SMV)
Name Samedan
Region Switzerland
Timezone Europe/Zurich (UTC+1.0)
Stats Elevation 5,600 ft / 1,707 m (AMSL)
Location 46.534207° 9.883938°
Runways 1
Magnetic Variation 2.657° E

METAR

LSZS 151020Z VRB01KT 9999 FEW010 SCT021 BKN075 M03/M05 Q0996 RMK H

Decode

TAF

Not found

Destination Runways

ID Width Length Bearing (true) Bearing (mag) Surface Threshold Offset Overrun Length
03 131 ft / 40 m 6,059 ft / 1,847 m 29.10° 26.44° Asphalt 0 ft / 0 m 0 ft / 0 m
21 131 ft / 40 m 6,059 ft / 1,847 m 209.10° 206.44° Asphalt 361 ft / 110 m 0 ft / 0 m

Popular Alternatives